Time;durP1;ratioP1;P1;durP2;ratioP2;P2;SDS_P1;SDS_P2;PMS_P1;PMS_P2;Temp;Humidity;BMP_temperature;BMP_pressure;BME280_temperature;BME280_humidity;BME280_pressure;Samples;Min_cycle;Max_cycle;Signal;HPM_P1;HPM_P2
2023/06/09 00:02:20;;;;;;;;;;;24.30;59.10;;;;;;5032156;28;42896;-80
2023/06/09 00:04:45;;;;;;;;;;;24.30;59.10;;;;;;5015625;28;42945;-80
2023/06/09 00:07:12;;;;;;;;;;;24.30;59.00;;;;;;5032092;28;43080;-79
2023/06/09 00:09:37;;;;;;;;;;;24.30;59.00;;;;;;5019490;28;43500;-79
2023/06/09 00:12:03;;;;;;;;;;;24.30;59.00;;;;;;5033557;28;42889;-80
2023/06/09 00:14:29;;;;;;;;;;;;;;;;;;5027581;28;42913;-80
2023/06/09 00:16:55;;;;;;;;;;;;;;;;;;5005567;28;43259;-79
2023/06/09 00:19:22;;;;;;;;;;;;;;;;;;5015130;28;43464;-80
2023/06/09 00:21:50;;;;;;;;;;;24.40;58.60;;;;;;5027612;28;42984;-80
2023/06/09 00:24:19;;;;;;;;;;;24.40;58.80;;;;;;5046695;28;43030;-79
2023/06/09 00:26:46;;;;;;;;;;;24.30;58.80;;;;;;5042776;28;43098;-79
2023/06/09 00:29:11;;;;;;;;;;;24.30;58.70;;;;;;5043618;28;43581;-79
2023/06/09 00:31:37;;;;;;;;;;;;;;;;;;5043390;28;43179;-80
2023/06/09 00:34:02;;;;;;;;;;;24.30;58.40;;;;;;5046895;28;43863;-80
2023/06/09 00:36:28;;;;;;;;;;;24.30;58.50;;;;;;5046634;28;43012;-80
2023/06/09 00:38:53;;;;;;;;;;;24.30;58.40;;;;;;5046796;28;44151;-80
2023/06/09 00:41:19;;;;;;;;;;;24.30;58.60;;;;;;5047516;28;42906;-80
2023/06/09 00:43:46;;;;;;;;;;;24.30;58.80;;;;;;5046030;28;43654;-79
2023/06/09 00:46:12;;;;;;;;;;;24.30;58.90;;;;;;5046977;28;43045;-79
2023/06/09 00:48:37;;;;;;;;;;;24.30;58.80;;;;;;5046552;28;44078;-79
2023/06/09 00:51:03;;;;;;;;;;;24.30;58.80;;;;;;5047036;28;42912;-80
2023/06/09 00:53:28;;;;;;;;;;;24.30;58.50;;;;;;5046574;28;43576;-80
2023/06/09 00:55:54;;;;;;;;;;;24.30;58.60;;;;;;5046233;28;42915;-80
2023/06/09 00:58:20;;;;;;;;;;;24.30;58.70;;;;;;5046563;28;42928;-79
2023/06/09 01:00:46;;;;;;;;;;;24.30;58.70;;;;;;5046816;28;42939;-80
2023/06/09 01:03:11;;;;;;;;;;;24.30;58.60;;;;;;5047539;28;42772;-80
2023/06/09 01:05:38;;;;;;;;;;;24.20;58.50;;;;;;5046433;28;42935;-80
2023/06/09 01:08:23;;;;;;;;;;;24.30;58.60;;;;;;5046332;28;43628;-80
2023/06/09 01:10:55;;;;;;;;;;;24.30;58.30;;;;;;5045474;28;43080;-80
2023/06/09 01:13:26;;;;;;;;;;;24.30;58.30;;;;;;5045935;28;42755;-80
2023/06/09 01:15:57;;;;;;;;;;;24.20;58.30;;;;;;5045895;28;43262;-79
2023/06/09 01:18:24;;;;;;;;;;;24.20;58.40;;;;;;5045497;28;42934;-80
2023/06/09 01:21:01;;;;;;;;;;;24.20;58.50;;;;;;5046370;28;42902;-80
2023/06/09 01:23:44;;;;;;;;;;;24.20;58.20;;;;;;5043409;28;43765;-79
2023/06/09 01:26:10;;;;;;;;;;;24.20;58.30;;;;;;5040089;28;42915;-80
2023/06/09 01:28:38;;;;;;;;;;;;;;;;;;5045503;28;42970;-79
2023/06/09 01:31:04;;;;;;;;;;;;;;;;;;5046078;28;43102;-80
2023/06/09 01:33:30;;;;;;;;;;;;;;;;;;5045986;28;42998;-80
2023/06/09 01:35:55;;;;;;;;;;;;;;;;;;5046215;28;42940;-79
2023/06/09 01:38:22;;;;;;;;;;;24.30;58.10;;;;;;5044707;28;42879;-79
2023/06/09 01:40:48;;;;;;;;;;;24.30;58.20;;;;;;5044330;28;43546;-79
2023/06/09 01:43:13;;;;;;;;;;;24.30;58.10;;;;;;5039394;28;42868;-80
2023/06/09 01:45:39;;;;;;;;;;;24.30;58.20;;;;;;5040419;28;42906;-80
2023/06/09 01:48:17;;;;;;;;;;;24.30;58.30;;;;;;5045316;28;43489;-80
2023/06/09 01:50:53;;;;;;;;;;;24.30;58.20;;;;;;5043232;28;43019;-80
2023/06/09 01:53:22;;;;;;;;;;;24.20;58.30;;;;;;5045179;28;43553;-79
2023/06/09 01:55:50;;;;;;;;;;;24.30;58.50;;;;;;5045415;28;42916;-79
2023/06/09 01:58:29;;;;;;;;;;;24.20;58.40;;;;;;5045149;28;43640;-79
2023/06/09 02:00:55;;;;;;;;;;;;;;;;;;5052399;28;42944;-79
2023/06/09 02:03:22;;;;;;;;;;;24.20;58.40;;;;;;5044952;28;43816;-79
2023/06/09 02:05:49;;;;;;;;;;;24.20;58.40;;;;;;5036367;28;42869;-80
2023/06/09 02:08:15;;;;;;;;;;;24.20;58.40;;;;;;5044232;28;44488;-79
2023/06/09 02:10:41;;;;;;;;;;;;;;;;;;5044568;28;43016;-80
2023/06/09 02:13:17;;;;;;;;;;;24.30;58.30;;;;;;5045615;28;43931;-80
2023/06/09 02:15:43;;;;;;;;;;;;;;;;;;5045329;28;42969;-79
2023/06/09 02:18:11;;;;;;;;;;;24.30;58.10;;;;;;5045723;28;42947;-80
2023/06/09 02:20:40;;;;;;;;;;;24.20;58.20;;;;;;5045403;28;42854;-80
2023/06/09 02:23:06;;;;;;;;;;;24.20;58.20;;;;;;5041389;28;43809;-80
2023/06/09 02:25:32;;;;;;;;;;;;;;;;;;5038808;28;43091;-79
2023/06/09 02:27:58;;;;;;;;;;;24.20;58.20;;;;;;5045575;28;43457;-79
2023/06/09 02:30:24;;;;;;;;;;;24.30;58.30;;;;;;5041696;28;42943;-78
2023/06/09 02:32:50;;;;;;;;;;;24.20;58.20;;;;;;5045386;28;43541;-80
2023/06/09 02:35:15;;;;;;;;;;;24.20;58.30;;;;;;5045399;28;43053;-79
2023/06/09 02:37:41;;;;;;;;;;;24.20;58.20;;;;;;5040459;28;43379;-80
2023/06/09 02:40:08;;;;;;;;;;;24.30;58.30;;;;;;5043780;28;42875;-79
2023/06/09 02:42:33;;;;;;;;;;;24.30;58.30;;;;;;5038558;28;43714;-80
2023/06/09 02:44:59;;;;;;;;;;;24.30;58.10;;;;;;5042386;28;42840;-79
2023/06/09 02:47:24;;;;;;;;;;;24.30;58.00;;;;;;5041415;28;42920;-79
2023/06/09 02:49:50;;;;;;;;;;;24.20;58.10;;;;;;5042586;28;43094;-79
2023/06/09 02:52:15;;;;;;;;;;;24.20;58.00;;;;;;5044275;28;43554;-80
2023/06/09 02:54:41;;;;;;;;;;;24.20;58.10;;;;;;5044078;28;42909;-80
2023/06/09 02:57:07;;;;;;;;;;;24.20;58.00;;;;;;5038198;28;43445;-79
2023/06/09 02:59:33;;;;;;;;;;;24.20;58.00;;;;;;5042683;28;43125;-80
2023/06/09 03:01:58;;;;;;;;;;;24.20;58.00;;;;;;5040276;28;42948;-80
2023/06/09 03:04:24;;;;;;;;;;;24.20;58.00;;;;;;5044802;28;42827;-79
2023/06/09 03:06:50;;;;;;;;;;;24.20;58.00;;;;;;5042855;28;43565;-79
2023/06/09 03:09:16;;;;;;;;;;;24.20;57.90;;;;;;5037360;28;43723;-76
2023/06/09 03:11:41;;;;;;;;;;;24.20;57.90;;;;;;5035219;28;45135;-75
2023/06/09 03:14:07;;;;;;;;;;;24.20;58.00;;;;;;5044527;28;44087;-76
2023/06/09 03:16:32;;;;;;;;;;;24.20;58.00;;;;;;5043920;28;43374;-76
2023/06/09 03:18:58;;;;;;;;;;;24.10;58.00;;;;;;5043344;28;42916;-76
2023/06/09 03:21:24;;;;;;;;;;;;;;;;;;5043493;28;43406;-78
2023/06/09 03:23:50;;;;;;;;;;;24.10;58.00;;;;;;5040921;28;43613;-78
2023/06/09 03:26:17;;;;;;;;;;;24.10;58.10;;;;;;5042412;28;43442;-76
2023/06/09 03:28:43;;;;;;;;;;;24.10;58.20;;;;;;5043345;28;42956;-77
2023/06/09 03:31:09;;;;;;;;;;;24.10;58.00;;;;;;5040520;28;42933;-76
2023/06/09 03:33:35;;;;;;;;;;;;;;;;;;5043600;28;42954;-78
2023/06/09 03:36:01;;;;;;;;;;;24.10;58.00;;;;;;5043552;28;42923;-77
2023/06/09 03:38:26;;;;;;;;;;;24.10;58.00;;;;;;5042927;28;43324;-77
2023/06/09 03:40:52;;;;;;;;;;;;;;;;;;5025061;28;43358;-76
2023/06/09 03:43:18;;;;;;;;;;;24.10;58.10;;;;;;5042389;28;43050;-77
2023/06/09 03:45:43;;;;;;;;;;;24.10;58.30;;;;;;5043668;28;43061;-77
2023/06/09 03:48:09;;;;;;;;;;;24.10;58.40;;;;;;5042566;28;43003;-75
2023/06/09 03:50:34;;;;;;;;;;;24.10;58.40;;;;;;5043587;28;43632;-76
2023/06/09 03:53:00;;;;;;;;;;;24.10;58.30;;;;;;5042626;28;43051;-77
2023/06/09 03:55:26;;;;;;;;;;;24.10;58.40;;;;;;5041360;28;43422;-78
2023/06/09 03:57:51;;;;;;;;;;;24.10;58.30;;;;;;5042456;28;43062;-77
2023/06/09 04:00:17;;;;;;;;;;;;;;;;;;5042991;28;43159;-76
2023/06/09 04:02:44;;;;;;;;;;;24.10;58.30;;;;;;5037243;28;43176;-77
2023/06/09 04:05:10;;;;;;;;;;;24.20;58.30;;;;;;5041721;28;43561;-78
2023/06/09 04:07:35;;;;;;;;;;;24.20;58.40;;;;;;5046655;28;43134;-76
2023/06/09 04:10:02;;;;;;;;;;;24.20;58.20;;;;;;5039374;28;43520;-76
2023/06/09 04:12:28;;;;;;;;;;;24.20;58.30;;;;;;5031664;28;43102;-78
2023/06/09 04:14:55;;;;;;;;;;;24.20;58.30;;;;;;5038207;28;43576;-77
2023/06/09 04:17:24;;;;;;;;;;;24.20;58.30;;;;;;5045688;28;43070;-78
2023/06/09 04:19:51;;;;;;;;;;;24.20;57.80;;;;;;5023208;28;43453;-79
2023/06/09 04:22:17;;;;;;;;;;;24.10;58.10;;;;;;5035881;28;43119;-76
2023/06/09 04:24:43;;;;;;;;;;;24.10;58.10;;;;;;5042395;28;42799;-77
2023/06/09 04:27:08;;;;;;;;;;;24.10;58.20;;;;;;5044606;28;43264;-80
2023/06/09 04:29:34;;;;;;;;;;;24.10;58.30;;;;;;5046289;28;42935;-77
2023/06/09 04:32:00;;;;;;;;;;;24.10;58.20;;;;;;5038311;28;42978;-79
2023/06/09 04:34:26;;;;;;;;;;;24.00;58.40;;;;;;5045801;28;43354;-80
2023/06/09 04:36:52;;;;;;;;;;;24.10;58.30;;;;;;5038188;28;43089;-80
2023/06/09 04:39:19;;;;;;;;;;;24.10;58.40;;;;;;5040510;28;42967;-79
2023/06/09 04:41:47;;;;;;;;;;;24.10;58.40;;;;;;5034235;28;42885;-79
2023/06/09 04:44:13;;;;;;;;;;;24.10;58.30;;;;;;5028675;28;42908;-79
2023/06/09 04:46:39;;;;;;;;;;;24.10;58.40;;;;;;5036909;28;43045;-79
2023/06/09 04:49:11;;;;;;;;;;;24.10;58.40;;;;;;5027496;28;43724;-79
2023/06/09 04:51:46;;;;;;;;;;;24.10;58.40;;;;;;5044431;28;42902;-79
2023/06/09 04:54:20;;;;;;;;;;;24.10;58.60;;;;;;5024432;28;43680;-85
2023/06/09 04:56:52;;;;;;;;;;;24.10;58.60;;;;;;5025901;28;43106;-86
2023/06/09 04:59:18;;;;;;;;;;;24.10;58.40;;;;;;5025924;28;45574;-84
2023/06/09 05:01:46;;;;;;;;;;;24.10;58.40;;;;;;5042037;28;43030;-80
2023/06/09 05:04:12;;;;;;;;;;;24.20;58.40;;;;;;5043314;28;43571;-79
2023/06/09 05:06:38;;;;;;;;;;;;;;;;;;5044045;28;43102;-87
2023/06/09 05:09:07;;;;;;;;;;;24.20;58.50;;;;;;5044055;28;43075;-82
2023/06/09 05:11:33;;;;;;;;;;;24.10;58.50;;;;;;5044618;28;43022;-79
2023/06/09 05:13:58;;;;;;;;;;;24.20;58.70;;;;;;5045152;28;43181;-80
2023/06/09 05:16:28;;;;;;;;;;;24.10;58.80;;;;;;5046655;28;43030;-80
2023/06/09 05:18:56;;;;;;;;;;;24.10;58.90;;;;;;5046341;28;42925;-89
2023/06/09 05:21:23;;;;;;;;;;;24.10;59.00;;;;;;5046822;28;42851;-79
2023/06/09 05:23:49;;;;;;;;;;;24.10;59.10;;;;;;5045712;28;42931;-81
2023/06/09 05:26:15;;;;;;;;;;;24.10;59.10;;;;;;5046258;28;43036;-88
2023/06/09 05:28:40;;;;;;;;;;;24.10;59.10;;;;;;5046192;28;43239;-79
2023/06/09 05:31:06;;;;;;;;;;;24.10;59.20;;;;;;5045587;28;43005;-79
2023/06/09 05:33:32;;;;;;;;;;;24.10;59.30;;;;;;5027587;28;44502;-80
2023/06/09 05:35:58;;;;;;;;;;;24.10;59.30;;;;;;5046120;28;42866;-80
2023/06/09 05:38:25;;;;;;;;;;;24.10;59.10;;;;;;5028314;28;44953;-82
2023/06/09 05:40:51;;;;;;;;;;;24.20;59.40;;;;;;5045196;28;43026;-89
2023/06/09 05:43:17;;;;;;;;;;;24.20;59.40;;;;;;5045439;28;42840;-81
2023/06/09 05:45:43;;;;;;;;;;;24.20;59.40;;;;;;5046394;28;43040;-91
2023/06/09 05:48:09;;;;;;;;;;;24.10;59.30;;;;;;5045665;28;43546;-83
2023/06/09 05:50:34;;;;;;;;;;;24.20;59.30;;;;;;5046019;28;43153;-86
2023/06/09 05:53:00;;;;;;;;;;;24.20;59.60;;;;;;5045596;28;43052;-89
2023/06/09 05:55:25;;;;;;;;;;;24.10;59.50;;;;;;5045637;28;43089;-79
2023/06/09 05:57:51;;;;;;;;;;;24.20;59.60;;;;;;5045572;28;42920;-87
2023/06/09 06:00:17;;;;;;;;;;;24.20;59.70;;;;;;5045707;28;42925;-86
2023/06/09 06:02:44;;;;;;;;;;;24.20;59.60;;;;;;5033055;28;43510;-83
2023/06/09 06:05:10;;;;;;;;;;;24.20;59.60;;;;;;5045721;28;42911;-80
2023/06/09 06:07:36;;;;;;;;;;;24.30;59.60;;;;;;5045983;28;43454;-91
2023/06/09 06:10:03;;;;;;;;;;;24.20;59.60;;;;;;5045899;28;43080;-90
2023/06/09 06:12:29;;;;;;;;;;;24.20;59.60;;;;;;5045478;28;42876;-80
2023/06/09 06:14:55;;;;;;;;;;;24.20;59.50;;;;;;5045350;28;42831;-91
2023/06/09 06:17:21;;;;;;;;;;;24.20;59.50;;;;;;5045661;28;43639;-81
2023/06/09 06:19:46;;;;;;;;;;;24.20;59.40;;;;;;5045942;28;43147;-91
2023/06/09 06:22:12;;;;;;;;;;;24.20;59.20;;;;;;5045080;28;42835;-86
2023/06/09 06:24:37;;;;;;;;;;;24.20;59.30;;;;;;5044932;28;42983;-91
2023/06/09 06:27:03;;;;;;;;;;;24.20;59.40;;;;;;5045984;28;43443;-79
2023/06/09 06:29:30;;;;;;;;;;;24.20;59.40;;;;;;5044565;28;42978;-86
2023/06/09 06:31:56;;;;;;;;;;;24.20;59.50;;;;;;5045586;28;43273;-80
2023/06/09 06:34:21;;;;;;;;;;;24.20;59.60;;;;;;5027453;28;42903;-81
2023/06/09 06:36:47;;;;;;;;;;;24.20;59.60;;;;;;5044262;28;43506;-89
2023/06/09 06:39:13;;;;;;;;;;;24.20;59.70;;;;;;5040238;28;42951;-85
2023/06/09 06:41:39;;;;;;;;;;;24.20;59.60;;;;;;5021199;28;43525;-84
2023/06/09 06:44:05;;;;;;;;;;;24.20;59.50;;;;;;5042490;28;42891;-83
2023/06/09 06:46:31;;;;;;;;;;;24.20;59.40;;;;;;5039693;28;43627;-83
2023/06/09 06:48:57;;;;;;;;;;;;;;;;;;5033859;28;42796;-83
2023/06/09 06:51:23;;;;;;;;;;;24.20;59.30;;;;;;5033642;28;44229;-84
2023/06/09 06:53:48;;;;;;;;;;;24.20;59.30;;;;;;5041275;28;43002;-86
2023/06/09 06:56:14;;;;;;;;;;;24.20;59.30;;;;;;5044330;28;43832;-82
2023/06/09 06:58:40;;;;;;;;;;;24.20;59.40;;;;;;5026283;28;42909;-85
2023/06/09 07:01:06;;;;;;;;;;;24.20;58.90;;;;;;5044219;28;42828;-83
2023/06/09 07:03:33;;;;;;;;;;;24.20;58.80;;;;;;5043887;28;42937;-85
2023/06/09 07:05:58;;;;;;;;;;;24.20;58.30;;;;;;5035329;28;43062;-86
2023/06/09 07:08:24;;;;;;;;;;;24.30;58.30;;;;;;5038926;28;43245;-83
2023/06/09 07:10:49;;;;;;;;;;;24.20;58.30;;;;;;5041032;28;43051;-84
2023/06/09 07:13:15;;;;;;;;;;;24.20;57.70;;;;;;5036490;28;43038;-84
2023/06/09 07:15:41;;;;;;;;;;;24.20;57.70;;;;;;5037765;28;43415;-85
2023/06/09 07:18:07;;;;;;;;;;;24.20;57.90;;;;;;5042859;28;43103;-86
2023/06/09 07:20:32;;;;;;;;;;;24.20;57.70;;;;;;5043489;28;42812;-86
2023/06/09 07:22:58;;;;;;;;;;;24.20;57.60;;;;;;5025775;28;42993;-86
2023/06/09 07:25:23;;;;;;;;;;;24.20;57.20;;;;;;5042343;28;43053;-85
2023/06/09 07:27:49;;;;;;;;;;;24.20;57.30;;;;;;5044267;28;43050;-84
2023/06/09 07:30:15;;;;;;;;;;;24.10;57.50;;;;;;5043512;28;43539;-85
2023/06/09 07:32:40;;;;;;;;;;;24.10;57.50;;;;;;5024924;28;43174;-86
2023/06/09 07:35:06;;;;;;;;;;;24.10;57.50;;;;;;5043217;28;43364;-86
2023/06/09 07:37:31;;;;;;;;;;;24.20;57.80;;;;;;5043731;28;43043;-85
2023/06/09 07:39:57;;;;;;;;;;;24.10;57.70;;;;;;5039471;28;43650;-87
2023/06/09 07:42:23;;;;;;;;;;;;;;;;;;5038817;28;43038;-85
2023/06/09 07:44:49;;;;;;;;;;;24.20;57.80;;;;;;5024578;28;44823;-86
2023/06/09 07:47:14;;;;;;;;;;;24.10;57.50;;;;;;5044227;28;42868;-85
2023/06/09 07:49:40;;;;;;;;;;;;;;;;;;5020814;28;43005;-85
2023/06/09 07:52:06;;;;;;;;;;;24.20;57.90;;;;;;5042068;28;42908;-86
2023/06/09 07:54:32;;;;;;;;;;;24.10;58.00;;;;;;5023578;28;43572;-86
2023/06/09 07:56:58;;;;;;;;;;;24.10;58.10;;;;;;5029689;28;42949;-83
2023/06/09 07:59:23;;;;;;;;;;;24.10;58.10;;;;;;5034033;28;43125;-83
2023/06/09 08:01:49;;;;;;;;;;;24.20;57.70;;;;;;5027022;28;42937;-82
2023/06/09 08:04:15;;;;;;;;;;;;;;;;;;5027599;28;43220;-84
2023/06/09 08:06:41;;;;;;;;;;;;;;;;;;5024502;28;42917;-85
2023/06/09 08:09:09;;;;;;;;;;;;;;;;;;5029207;28;43523;-84
2023/06/09 08:11:34;;;;;;;;;;;24.20;58.10;;;;;;5032187;28;43042;-85
2023/06/09 08:14:00;;;;;;;;;;;24.30;58.10;;;;;;5030236;28;42952;-85
2023/06/09 08:16:25;;;;;;;;;;;24.20;57.90;;;;;;5032211;28;42984;-83
2023/06/09 08:18:51;;;;;;;;;;;24.20;58.00;;;;;;5030039;28;43132;-83
2023/06/09 08:21:17;;;;;;;;;;;24.30;57.60;;;;;;5042338;28;42875;-83
2023/06/09 08:23:43;;;;;;;;;;;24.20;57.40;;;;;;5032875;28;43548;-83
2023/06/09 08:26:09;;;;;;;;;;;24.30;57.50;;;;;;5017840;28;42833;-83
2023/06/09 08:28:35;;;;;;;;;;;24.20;57.40;;;;;;5023605;28;42991;-85
2023/06/09 08:31:00;;;;;;;;;;;24.30;57.40;;;;;;5022964;28;43020;-84
2023/06/09 08:33:28;;;;;;;;;;;;;;;;;;5022165;28;43877;-83
2023/06/09 08:35:53;;;;;;;;;;;24.30;57.20;;;;;;5001922;28;43113;-84
2023/06/09 08:38:19;;;;;;;;;;;24.20;56.80;;;;;;5028005;28;43814;-84
2023/06/09 08:40:45;;;;;;;;;;;24.30;56.80;;;;;;5005081;28;43240;-84
2023/06/09 08:43:11;;;;;;;;;;;24.30;56.40;;;;;;5019346;28;42942;-87
2023/06/09 08:45:40;;;;;;;;;;;24.30;56.00;;;;;;5000545;28;43034;-84
2023/06/09 08:48:07;;;;;;;;;;;24.30;56.00;;;;;;5009735;28;43003;-86
2023/06/09 08:50:41;;;;;;;;;;;24.20;55.70;;;;;;5017532;28;42924;-83
2023/06/09 08:53:07;;;;;;;;;;;24.30;55.20;;;;;;5024958;28;43488;-84
2023/06/09 08:55:33;;;;;;;;;;;24.20;54.60;;;;;;5004119;28;42989;-84
2023/06/09 08:57:58;;;;;;;;;;;24.20;54.80;;;;;;5026098;28;42925;-84
2023/06/09 09:00:24;;;;;;;;;;;24.20;54.60;;;;;;5021316;28;43169;-84
2023/06/09 09:02:49;;;;;;;;;;;24.20;55.20;;;;;;5026756;28;42965;-82
2023/06/09 09:05:15;;;;;;;;;;;24.20;55.00;;;;;;5025737;28;43075;-83
2023/06/09 09:07:40;;;;;;;;;;;24.30;55.20;;;;;;5007511;28;45541;-83
2023/06/09 09:10:06;;;;;;;;;;;24.30;54.40;;;;;;5021871;28;43270;-84
2023/06/09 09:13:06;;;;;;;;;;;24.30;54.90;;;;;;5021741;28;43005;-84
2023/06/09 09:15:31;;;;;;;;;;;24.30;54.70;;;;;;4988038;28;43066;-84
2023/06/09 09:17:57;;;;;;;;;;;24.30;54.70;;;;;;5025589;28;42893;-83
2023/06/09 09:20:30;;;;;;;;;;;24.30;54.90;;;;;;5015760;28;43043;-83
2023/06/09 09:22:56;;;;;;;;;;;24.30;54.80;;;;;;5029346;28;42927;-83
2023/06/09 09:25:26;;;;;;;;;;;24.30;54.70;;;;;;5061923;28;42903;-84
2023/06/09 09:28:01;;;;;;;;;;;24.30;54.60;;;;;;5065863;28;43587;-84
2023/06/09 09:30:39;;;;;;;;;;;24.30;54.60;;;;;;5048087;28;42815;-84
2023/06/09 09:33:08;;;;;;;;;;;24.30;54.40;;;;;;5052212;28;42905;-83
2023/06/09 09:35:42;;;;;;;;;;;24.30;54.30;;;;;;5065787;28;43123;-83
2023/06/09 09:38:12;;;;;;;;;;;24.40;54.40;;;;;;5063989;28;42884;-84
2023/06/09 09:40:42;;;;;;;;;;;24.30;53.90;;;;;;5063720;28;42742;-83
2023/06/09 09:43:08;;;;;;;;;;;24.30;53.80;;;;;;5065017;28;42982;-84
2023/06/09 09:45:37;;;;;;;;;;;24.30;54.00;;;;;;5041904;28;43121;-83
2023/06/09 09:48:11;;;;;;;;;;;24.30;53.80;;;;;;5070146;28;43018;-83
2023/06/09 09:50:37;;;;;;;;;;;24.30;53.50;;;;;;5065882;28;43083;-84
2023/06/09 09:53:03;;;;;;;;;;;24.30;53.30;;;;;;5062066;28;43373;-83
2023/06/09 09:55:29;;;;;;;;;;;24.30;53.80;;;;;;5059905;28;42843;-83
2023/06/09 09:57:55;;;;;;;;;;;24.40;53.30;;;;;;5062331;28;43480;-85
2023/06/09 10:00:21;;;;;;;;;;;24.30;53.40;;;;;;5046594;28;43005;-84
2023/06/09 10:02:50;;;;;;;;;;;24.30;53.40;;;;;;5046022;28;44852;-83
2023/06/09 10:05:17;;;;;;;;;;;24.30;53.60;;;;;;5053477;28;42913;-83
2023/06/09 10:07:44;;;;;;;;;;;24.30;53.90;;;;;;5049232;28;43722;-82
2023/06/09 10:10:10;;;;;;;;;;;24.40;54.00;;;;;;5065752;28;42859;-83
2023/06/09 10:12:36;;;;;;;;;;;;;;;;;;5065676;28;43369;-83
2023/06/09 10:15:02;;;;;;;;;;;24.40;54.40;;;;;;5045122;28;42965;-83
2023/06/09 10:17:28;;;;;;;;;;;24.40;54.40;;;;;;5047524;28;43857;-83
2023/06/09 10:19:55;;;;;;;;;;;24.40;54.30;;;;;;5065452;28;43502;-85
2023/06/09 10:22:21;;;;;;;;;;;24.40;54.10;;;;;;5065027;28;43689;-80
2023/06/09 10:24:47;;;;;;;;;;;24.40;54.00;;;;;;5061424;28;43013;-85
2023/06/09 10:27:15;;;;;;;;;;;24.40;54.20;;;;;;5064191;28;43614;-85
2023/06/09 10:29:41;;;;;;;;;;;24.40;53.80;;;;;;5062208;28;43221;-90
2023/06/09 10:32:11;;;;;;;;;;;24.40;53.90;;;;;;5051269;28;43101;-91
2023/06/09 10:34:37;;;;;;;;;;;24.40;54.00;;;;;;5061659;28;43049;-88
2023/06/09 10:37:04;;;;;;;;;;;24.40;54.20;;;;;;5063401;28;43176;-85
2023/06/09 10:39:41;;;;;;;;;;;24.50;54.00;;;;;;5063521;28;42974;-89
2023/06/09 10:42:31;;;;;;;;;;;24.50;54.20;;;;;;5063115;28;42924;-88
2023/06/09 10:44:57;;;;;;;;;;;;;;;;;;5060552;28;43120;-88
2023/06/09 10:47:41;;;;;;;;;;;24.50;54.20;;;;;;5063818;28;42971;-89
2023/06/09 10:50:20;;;;;;;;;;;24.40;54.00;;;;;;5063836;28;42904;-90
2023/06/09 10:52:45;;;;;;;;;;;24.40;54.20;;;;;;5049568;28;44594;-89
2023/06/09 10:55:12;;;;;;;;;;;24.50;54.30;;;;;;5053856;28;43057;-88
2023/06/09 10:57:38;;;;;;;;;;;24.50;54.30;;;;;;5062419;28;43113;-88
2023/06/09 11:00:11;;;;;;;;;;;24.50;54.30;;;;;;5061407;28;42810;-87
2023/06/09 11:02:37;;;;;;;;;;;24.60;54.40;;;;;;5060726;28;44453;-88
2023/06/09 11:05:04;;;;;;;;;;;24.60;54.40;;;;;;5059712;28;42963;-88
2023/06/09 11:07:33;;;;;;;;;;;24.60;54.50;;;;;;5062067;28;43035;-88
2023/06/09 11:09:58;;;;;;;;;;;24.60;54.60;;;;;;5061769;28;43015;-88
2023/06/09 11:12:27;;;;;;;;;;;24.50;54.60;;;;;;5064306;28;43499;-88
2023/06/09 11:14:57;;;;;;;;;;;24.50;54.70;;;;;;5063713;28;43003;-87
2023/06/09 11:17:28;;;;;;;;;;;24.50;54.90;;;;;;5054922;28;42983;-87
2023/06/09 11:20:14;;;;;;;;;;;24.50;55.20;;;;;;5064093;28;43008;-88
2023/06/09 11:22:50;;;;;;;;;;;24.50;55.20;;;;;;5063914;28;43490;-88
2023/06/09 11:25:18;;;;;;;;;;;24.60;55.30;;;;;;5059244;28;42998;-87
2023/06/09 11:28:07;;;;;;;;;;;24.40;55.20;;;;;;5059387;28;42995;-87
2023/06/09 11:30:33;;;;;;;;;;;;;;;;;;5044417;28;43441;-89
2023/06/09 11:32:58;;;;;;;;;;;24.50;55.20;;;;;;5064153;28;43280;-88
2023/06/09 11:35:30;;;;;;;;;;;24.50;55.30;;;;;;5061423;28;43032;-89
2023/06/09 11:37:59;;;;;;;;;;;24.50;55.30;;;;;;5052009;28;43816;-82
2023/06/09 11:40:25;;;;;;;;;;;24.50;55.40;;;;;;5063278;28;42914;-82
2023/06/09 11:42:51;;;;;;;;;;;;;;;;;;5060519;28;43263;-83
2023/06/09 11:45:17;;;;;;;;;;;24.60;55.50;;;;;;5061378;28;43161;-82
2023/06/09 11:47:44;;;;;;;;;;;24.60;55.40;;;;;;5060095;28;43880;-82
2023/06/09 11:50:14;;;;;;;;;;;24.60;55.50;;;;;;5061155;28;43319;-82
2023/06/09 11:52:43;;;;;;;;;;;24.60;55.80;;;;;;5042125;28;44305;-82
2023/06/09 11:55:09;;;;;;;;;;;24.60;55.90;;;;;;5052830;28;43014;-83
2023/06/09 11:57:35;;;;;;;;;;;24.60;55.90;;;;;;5061138;28;43832;-84
2023/06/09 12:00:14;;;;;;;;;;;24.60;55.90;;;;;;5043631;28;43013;-85
2023/06/09 12:02:40;;;;;;;;;;;24.60;56.10;;;;;;5061477;28;43042;-85
2023/06/09 12:05:10;;;;;;;;;;;24.60;56.30;;;;;;5061669;28;43943;-83
2023/06/09 12:07:36;;;;;;;;;;;24.60;56.40;;;;;;5061539;28;43455;-82
2023/06/09 12:10:02;;;;;;;;;;;24.60;56.30;;;;;;5043645;28;42972;-83
2023/06/09 12:12:27;;;;;;;;;;;24.60;56.40;;;;;;5062332;28;43581;-82
2023/06/09 12:14:53;;;;;;;;;;;24.60;56.20;;;;;;5062107;28;42920;-82
2023/06/09 12:17:19;;;;;;;;;;;24.60;56.20;;;;;;5061196;28;43533;-82
2023/06/09 12:19:48;;;;;;;;;;;24.60;56.30;;;;;;5061170;28;43031;-82
2023/06/09 12:22:14;;;;;;;;;;;;;;;;;;5061229;28;42953;-82
2023/06/09 12:24:40;;;;;;;;;;;;;;;;;;5060114;28;42949;-83
2023/06/09 12:27:06;;;;;;;;;;;;;;;;;;5057535;28;43545;-83
2023/06/09 12:29:32;;;;;;;;;;;24.70;56.70;;;;;;5050907;28;43055;-83
2023/06/09 12:31:57;;;;;;;;;;;24.70;56.70;;;;;;5046500;28;43036;-82
2023/06/09 12:34:26;;;;;;;;;;;24.60;56.80;;;;;;5060399;28;42971;-83
2023/06/09 12:36:52;;;;;;;;;;;24.70;57.00;;;;;;5048373;28;44535;-83
2023/06/09 12:39:19;;;;;;;;;;;24.60;56.90;;;;;;5046882;28;43065;-82
2023/06/09 12:41:44;;;;;;;;;;;24.70;57.10;;;;;;5047328;28;43662;-82
2023/06/09 12:44:18;;;;;;;;;;;24.60;57.10;;;;;;5045825;28;42951;-82
2023/06/09 12:46:44;;;;;;;;;;;24.60;57.10;;;;;;5065728;28;43672;-82
2023/06/09 12:49:10;;;;;;;;;;;24.60;57.30;;;;;;5060853;28;42970;-82
2023/06/09 12:51:43;;;;;;;;;;;24.70;57.20;;;;;;5054174;28;43089;-82
2023/06/09 12:54:13;;;;;;;;;;;24.70;57.10;;;;;;5063225;28;43137;-82
2023/06/09 12:56:39;;;;;;;;;;;;;;;;;;5061430;28;43057;-82
2023/06/09 12:59:05;;;;;;;;;;;24.70;57.10;;;;;;5049120;28;43015;-82
2023/06/09 13:01:31;;;;;;;;;;;24.70;58.50;;;;;;5065655;28;43679;-82
2023/06/09 13:03:57;;;;;;;;;;;;;;;;;;5065419;28;42942;-82
2023/06/09 13:06:22;;;;;;;;;;;24.70;57.90;;;;;;5066069;28;43370;-82
2023/06/09 13:08:48;;;;;;;;;;;24.70;57.70;;;;;;5066976;28;43024;-82
2023/06/09 13:11:13;;;;;;;;;;;24.70;58.00;;;;;;5066522;28;43689;-82
2023/06/09 13:13:40;;;;;;;;;;;24.80;58.00;;;;;;5066776;28;42908;-82
2023/06/09 13:16:08;;;;;;;;;;;24.70;60.00;;;;;;5066465;28;43077;-87
2023/06/09 13:18:34;;;;;;;;;;;24.80;60.00;;;;;;5066643;28;43084;-87
2023/06/09 13:21:00;;;;;;;;;;;;;;;;;;5065783;28;42997;-87
2023/06/09 13:23:26;;;;;;;;;;;24.90;59.40;;;;;;5045620;28;43023;-80
2023/06/09 13:25:54;;;;;;;;;;;;;;;;;;5034834;28;43149;-92
2023/06/09 13:28:20;;;;;;;;;;;;;;;;;;5029387;28;42943;-93
2023/06/09 13:30:46;;;;;;;;;;;25.00;58.60;;;;;;5026809;28;43079;-83
2023/06/09 13:33:11;;;;;;;;;;;25.00;58.40;;;;;;5044427;28;42985;-83
2023/06/09 13:35:38;;;;;;;;;;;25.10;58.60;;;;;;5045071;28;43548;-83
2023/06/09 13:38:04;;;;;;;;;;;;;;;;;;5045074;28;43021;-82
2023/06/09 13:40:34;;;;;;;;;;;25.00;59.50;;;;;;5045576;28;43575;-81
2023/06/09 13:43:00;;;;;;;;;;;;;;;;;;5031586;28;43159;-79
2023/06/09 13:45:26;;;;;;;;;;;25.10;58.70;;;;;;5036362;28;43980;-80
2023/06/09 13:47:54;;;;;;;;;;;;;;;;;;5044419;28;42985;-80
2023/06/09 13:50:20;;;;;;;;;;;25.10;58.50;;;;;;5041379;28;43630;-80
2023/06/09 13:52:48;;;;;;;;;;;25.10;58.20;;;;;;5042105;28;42991;-81
2023/06/09 13:55:14;;;;;;;;;;;;;;;;;;5044314;28;43017;-80
2023/06/09 13:57:42;;;;;;;;;;;;;;;;;;5045242;28;42884;-80
2023/06/09 14:00:08;;;;;;;;;;;25.10;57.90;;;;;;5033227;28;43843;-79
2023/06/09 14:02:34;;;;;;;;;;;25.10;57.70;;;;;;5043269;28;43061;-80
2023/06/09 14:05:00;;;;;;;;;;;;;;;;;;5044950;28;42977;-80
2023/06/09 14:07:26;;;;;;;;;;;25.10;57.70;;;;;;5040414;28;42948;-79
2023/06/09 14:09:52;;;;;;;;;;;;;;;;;;5038146;28;43366;-80
2023/06/09 14:12:17;;;;;;;;;;;25.10;57.90;;;;;;5043223;28;42900;-80
2023/06/09 14:14:43;;;;;;;;;;;;;;;;;;5045247;28;44008;-80
2023/06/09 14:17:09;;;;;;;;;;;;;;;;;;5045031;28;42966;-80
2023/06/09 14:19:35;;;;;;;;;;;25.00;57.80;;;;;;5032352;28;43026;-81
2023/06/09 14:22:04;;;;;;;;;;;;;;;;;;5045465;28;42867;-80
2023/06/09 14:24:30;;;;;;;;;;;;;;;;;;5042313;28;42835;-81
2023/06/09 14:26:56;;;;;;;;;;;25.00;57.90;;;;;;5037873;28;43395;-80
2023/06/09 14:29:21;;;;;;;;;;;25.10;57.90;;;;;;5043304;28;44488;-80
2023/06/09 14:31:47;;;;;;;;;;;;;;;;;;5040325;28;43388;-84
2023/06/09 14:34:13;;;;;;;;;;;;;;;;;;5038798;28;42994;-80
2023/06/09 14:36:39;;;;;;;;;;;;;;;;;;5033520;28;43288;-80